Time;durP1;ratioP1;P1;durP2;ratioP2;P2;SDS_P1;SDS_P2;PMS_P1;PMS_P2;Temp;Humidity;BMP_temperature;BMP_pressure;BME280_temperature;BME280_humidity;BME280_pressure;Samples;Min_cycle;Max_cycle;Signal;HPM_P1;HPM_P2
2021/01/02 00:02:16;;;;;;;44.27;17.93;;;;;;;;;;4420969;32;20168;-82
2021/01/02 00:04:51;;;;;;;48.50;19.43;;;;;;;;;;4421238;32;20570;-82
2021/01/02 00:07:30;;;;;;;49.10;19.43;;;;;;;;;;4421547;32;20271;-82
2021/01/02 00:09:59;;;;;;;47.87;19.47;;;;;;;;;;4421568;32;20154;-83
2021/01/02 00:12:38;;;;;;;45.00;18.60;;;;;;;;;;4421118;32;20171;-82
2021/01/02 00:15:05;;;;;;;44.93;19.07;;;;;;;;;;4421270;32;20222;-83
2021/01/02 00:17:30;;;;;;;50.07;19.37;;;;;;;;;;4423527;32;20150;-83
2021/01/02 00:20:07;;;;;;;48.03;20.17;;;;;;;;;;4423576;32;20165;-83
2021/01/02 00:22:45;;;;;;;50.70;19.67;;;;;;;;;;4424258;32;20191;-83
2021/01/02 00:25:12;;;;;;;51.17;21.00;;;;;;;;;;4423797;32;20220;-83
2021/01/02 00:28:02;;;;;;;46.87;20.00;;;;;;;;;;4423519;32;20513;-83
2021/01/02 00:30:50;;;;;;;54.40;21.70;;;;;;;;;;4424133;32;20178;-83
2021/01/02 00:33:28;;;;;;;45.20;19.63;;;;;;;;;;4424400;32;20184;-83
2021/01/02 00:35:59;;;;;;;43.50;19.10;;;;;;;;;;4423801;32;20179;-83
2021/01/02 00:38:26;;;;;;;50.47;20.53;;;;;;;;;;4423626;32;20176;-83
2021/01/02 00:40:54;;;;;;;43.27;20.17;;;;;;;;;;4423371;32;20149;-83
2021/01/02 00:43:22;;;;;;;47.33;20.47;;;;;;;;;;4423745;32;20270;-83
2021/01/02 00:45:48;;;;;;;53.57;20.63;;;;;;;;;;4423580;32;20153;-83
2021/01/02 00:48:16;;;;;;;50.43;21.13;;;;;;;;;;4423824;32;20210;-82
2021/01/02 00:50:43;;;;;;;50.27;20.43;;;;;;;;;;4423300;32;20169;-83
2021/01/02 00:53:32;;;;;;;43.53;19.43;;;;;;;;;;4423267;32;20157;-83
2021/01/02 00:56:03;;;;;;;45.10;20.37;;;;;;;;;;4423799;32;20145;-83
2021/01/02 00:58:56;;;;;;;44.40;19.47;;;;;;;;;;4423716;32;20195;-83
2021/01/02 01:01:31;;;;;;;47.10;20.53;;;;;;;;;;4423575;32;20161;-83
2021/01/02 01:04:03;;;;;;;42.83;20.07;;;;;;;;;;4423072;32;20243;-83
2021/01/02 01:06:31;;;;;;;55.67;22.97;;;;;;;;;;4437290;32;20182;-83
2021/01/02 01:09:03;;;;;;;54.93;21.70;;;;;;;;;;4422798;32;20173;-83
2021/01/02 01:11:35;;;;;;;49.93;20.97;;;;;;;;;;4423908;32;20157;-82
2021/01/02 01:14:01;;;;;;;44.87;21.23;;;;;;;;;;4423904;32;20233;-82
2021/01/02 01:16:40;;;;;;;59.40;22.00;;;;;;;;;;4422826;32;20172;-83
2021/01/02 01:19:07;;;;;;;47.37;21.70;;;;;;;;;;4423195;32;20279;-82
2021/01/02 01:21:39;;;;;;;55.20;23.23;;;;;;;;;;4422839;32;20204;-82
2021/01/02 01:24:15;;;;;;;50.30;20.97;;;;;;;;;;4423045;32;20266;-82
2021/01/02 01:26:55;;;;;;;49.10;21.80;;;;;;;;;;4422599;32;20156;-82
2021/01/02 01:29:50;;;;;;;56.17;22.93;;;;;;;;;;4422803;32;20153;-82
2021/01/02 01:32:28;;;;;;;51.63;22.43;;;;;;;;;;4376862;32;20491;-82
2021/01/02 01:34:54;;;;;;;51.87;21.87;;;;;;;;;;4376300;32;20162;-83
2021/01/02 01:37:28;;;;;;;50.93;22.20;;;;;;;;;;4425061;32;20145;-83
2021/01/02 01:39:54;;;;;;;52.07;21.93;;;;;;;;;;4422591;32;20153;-82
2021/01/02 01:42:38;;;;;;;48.03;22.03;;;;;;;;;;4422680;32;20180;-82
2021/01/02 01:45:06;;;;;;;50.83;21.33;;;;;;;;;;4422434;32;20474;-82
2021/01/02 01:47:36;;;;;;;42.90;20.80;;;;;;;;;;4422406;32;20171;-83
2021/01/02 01:50:21;;;;;;;51.13;20.93;;;;;;;;;;4422481;32;20169;-82
2021/01/02 01:53:40;;;;;;;48.50;21.43;;;;;;;;;;4422457;32;20191;-82
2021/01/02 01:56:48;;;;;;;;;;;;;;;;;;;;;
2021/01/02 01:59:20;;;;;;;52.57;21.93;;;;;;;;;;4339108;32;20162;-81
2021/01/02 02:01:55;;;;;;;43.90;20.57;;;;;;;;;;4416261;32;20221;-81
2021/01/02 02:04:32;;;;;;;50.30;21.63;;;;;;;;;;4423611;32;20191;-82
2021/01/02 02:07:01;;;;;;;43.07;19.03;;;;;;;;;;4421773;32;20160;-83
2021/01/02 02:09:41;;;;;;;52.37;21.50;;;;;;;;;;4422222;32;20154;-83
2021/01/02 02:12:29;;;;;;;49.33;21.50;;;;;;;;;;4422119;32;20168;-83
2021/01/02 02:14:57;;;;;;;58.07;22.37;;;;;;;;;;4422114;32;20517;-83
2021/01/02 02:17:27;;;;;;;49.37;20.90;;;;;;;;;;4423013;32;20260;-83
2021/01/02 02:19:55;;;;;;;50.03;20.77;;;;;;;;;;4421973;32;20224;-83
2021/01/02 02:22:27;;;;;;;50.90;21.57;;;;;;;;;;4436047;32;20487;-84
2021/01/02 02:24:53;;;;;;;47.50;19.80;;;;;;;;;;4422173;32;20153;-83
2021/01/02 02:27:28;;;;;;;48.17;20.50;;;;;;;;;;4421943;32;20620;-84
2021/01/02 02:29:56;;;;;;;49.77;21.10;;;;;;;;;;4421635;32;20152;-84
2021/01/02 02:32:26;;;;;;;48.67;21.70;;;;;;;;;;4422376;32;20234;-83
2021/01/02 02:34:52;;;;;;;52.43;21.87;;;;;;;;;;4435919;32;20589;-83
2021/01/02 02:37:23;;;;;;;46.90;21.43;;;;;;;;;;4422138;32;20153;-84
2021/01/02 02:39:51;;;;;;;51.33;22.20;;;;;;;;;;4421820;32;20558;-84
2021/01/02 02:42:17;;;;;;;48.30;20.47;;;;;;;;;;4422014;32;20158;-84
2021/01/02 02:44:45;;;;;;;53.30;21.87;;;;;;;;;;4421771;32;20219;-83
2021/01/02 02:47:13;;;;;;;52.73;22.30;;;;;;;;;;4421750;32;20157;-84
2021/01/02 02:49:42;;;;;;;56.57;22.53;;;;;;;;;;4421957;32;20582;-83
2021/01/02 02:52:25;;;;;;;52.33;23.10;;;;;;;;;;4421721;32;20203;-83
2021/01/02 02:54:51;;;;;;;50.93;23.50;;;;;;;;;;4422086;32;20559;-83
2021/01/02 02:57:19;;;;;;;57.37;23.17;;;;;;;;;;4422206;32;20172;-83
2021/01/02 02:59:52;;;;;;;58.53;23.50;;;;;;;;;;4421714;32;20508;-83
2021/01/02 03:02:18;;;;;;;56.30;24.73;;;;;;;;;;4422300;32;20497;-83
2021/01/02 03:04:46;;;;;;;60.43;24.50;;;;;;;;;;4421579;32;20252;-84
2021/01/02 03:07:12;;;;;;;59.80;24.63;;;;;;;;;;4422013;32;20568;-84
2021/01/02 03:09:42;;;;;;;56.37;24.50;;;;;;;;;;4421521;32;20590;-83
2021/01/02 03:12:11;;;;;;;62.43;25.37;;;;;;;;;;4421863;32;20213;-83
2021/01/02 03:14:39;;;;;;;57.33;24.57;;;;;;;;;;4421526;32;20149;-83
2021/01/02 03:17:07;;;;;;;55.53;24.77;;;;;;;;;;4421450;32;20190;-83
2021/01/02 03:19:33;;;;;;;67.20;27.43;;;;;;;;;;4419821;32;20204;-83
2021/01/02 03:22:01;;;;;;;62.77;25.80;;;;;;;;;;4421772;32;20171;-83
2021/01/02 03:24:29;;;;;;;60.53;26.00;;;;;;;;;;4421375;32;20228;-83
2021/01/02 03:26:56;;;;;;;59.80;25.33;;;;;;;;;;4421710;32;20180;-83
2021/01/02 03:29:22;;;;;;;52.40;23.73;;;;;;;;;;4421847;32;20180;-83
2021/01/02 03:31:47;;;;;;;51.37;24.27;;;;;;;;;;4421504;32;20466;-83
2021/01/02 03:34:18;;;;;;;56.47;25.27;;;;;;;;;;4421408;32;20185;-83
2021/01/02 03:36:43;;;;;;;66.83;26.40;;;;;;;;;;4421698;32;20153;-83
2021/01/02 03:39:09;;;;;;;61.30;25.73;;;;;;;;;;4421226;32;20168;-83
2021/01/02 03:41:36;;;;;;;72.00;28.00;;;;;;;;;;4421337;32;20150;-83
2021/01/02 03:44:02;;;;;;;57.07;25.10;;;;;;;;;;4421328;32;20176;-83
2021/01/02 03:46:27;;;;;;;60.70;26.23;;;;;;;;;;4421374;32;20196;-84
2021/01/02 03:48:56;;;;;;;53.43;25.20;;;;;;;;;;4421969;32;20645;-83
2021/01/02 03:51:25;;;;;;;58.63;25.87;;;;;;;;;;4423934;32;20154;-84
2021/01/02 03:53:53;;;;;;;62.70;27.50;;;;;;;;;;4424285;32;20180;-83
2021/01/02 03:56:19;;;;;;;62.17;27.13;;;;;;;;;;4424456;32;20471;-83
2021/01/02 03:58:46;;;;;;;59.77;25.40;;;;;;;;;;4425087;32;20198;-83
2021/01/02 04:01:19;;;;;;;54.00;24.37;;;;;;;;;;4423940;32;20153;-83
2021/01/02 04:03:45;;;;;;;61.10;25.37;;;;;;;;;;4439027;32;20408;-83
2021/01/02 04:06:16;;;;;;;60.93;25.93;;;;;;;;;;4424658;32;20184;-84
2021/01/02 04:08:46;;;;;;;64.27;25.23;;;;;;;;;;4424411;32;20157;-83
2021/01/02 04:11:19;;;;;;;58.43;25.67;;;;;;;;;;4424385;32;20219;-84
2021/01/02 04:13:54;;;;;;;70.13;27.20;;;;;;;;;;4424045;32;20157;-83
2021/01/02 04:16:19;;;;;;;68.10;27.53;;;;;;;;;;4424213;32;20148;-83
2021/01/02 04:18:50;;;;;;;58.50;24.20;;;;;;;;;;4424417;32;20153;-84
2021/01/02 04:21:20;;;;;;;62.57;26.07;;;;;;;;;;4423765;32;20178;-84
2021/01/02 04:23:45;;;;;;;56.10;25.30;;;;;;;;;;4424239;32;20176;-83
2021/01/02 04:26:20;;;;;;;60.17;24.23;;;;;;;;;;4424055;32;20152;-84
2021/01/02 04:28:55;;;;;;;59.07;24.27;;;;;;;;;;4423809;32;20149;-84
2021/01/02 04:31:20;;;;;;;77.47;28.43;;;;;;;;;;4423644;32;20252;-83
2021/01/02 04:34:06;;;;;;;60.10;25.00;;;;;;;;;;4423782;32;20165;-84
2021/01/02 04:36:32;;;;;;;64.60;27.67;;;;;;;;;;4438385;32;20577;-84
2021/01/02 04:38:57;;;;;;;58.87;26.07;;;;;;;;;;4423545;32;20158;-83
2021/01/02 04:41:26;;;;;;;67.30;27.23;;;;;;;;;;4423252;32;20184;-84
2021/01/02 04:43:52;;;;;;;61.10;27.03;;;;;;;;;;4423362;32;20177;-84
2021/01/02 04:46:21;;;;;;;59.67;25.07;;;;;;;;;;4423386;32;20485;-83
2021/01/02 04:48:49;;;;;;;73.90;27.50;;;;;;;;;;4423770;32;20158;-84
2021/01/02 04:51:17;;;;;;;58.93;26.50;;;;;;;;;;4423323;32;20154;-83
2021/01/02 04:53:54;;;;;;;68.23;27.70;;;;;;;;;;4423510;32;20208;-83
2021/01/02 04:56:23;;;;;;;65.57;27.27;;;;;;;;;;4423431;32;20157;-84
2021/01/02 04:58:49;;;;;;;59.33;26.77;;;;;;;;;;4437499;32;20224;-84
2021/01/02 05:01:14;;;;;;;71.80;27.60;;;;;;;;;;4422677;32;20158;-84
2021/01/02 05:03:50;;;;;;;69.77;26.60;;;;;;;;;;4423664;32;20166;-83
2021/01/02 05:06:28;;;;;;;71.23;28.23;;;;;;;;;;4423193;32;20198;-84
2021/01/02 05:08:53;;;;;;;70.07;27.50;;;;;;;;;;4423346;32;20217;-84
2021/01/02 05:11:20;;;;;;;65.13;25.90;;;;;;;;;;4423035;32;20165;-83
2021/01/02 05:13:45;;;;;;;65.63;27.33;;;;;;;;;;4422973;32;20165;-84
2021/01/02 05:16:23;;;;;;;67.70;27.10;;;;;;;;;;4423446;32;20218;-84
2021/01/02 05:18:55;;;;;;;71.73;27.50;;;;;;;;;;4423563;32;20220;-83
2021/01/02 05:21:24;;;;;;;68.33;26.80;;;;;;;;;;4419534;32;20169;-83
2021/01/02 05:24:06;;;;;;;63.43;25.07;;;;;;;;;;4422909;32;20150;-83
2021/01/02 05:26:32;;;;;;;65.43;26.87;;;;;;;;;;4423387;32;20214;-83
2021/01/02 05:29:14;;;;;;;76.03;28.20;;;;;;;;;;4422870;32;20231;-83
2021/01/02 05:31:42;;;;;;;67.87;27.80;;;;;;;;;;4423696;32;20162;-83
2021/01/02 05:34:10;;;;;;;63.23;26.77;;;;;;;;;;4422699;32;20158;-83
2021/01/02 05:36:37;;;;;;;70.87;27.57;;;;;;;;;;4422655;32;20248;-83
2021/01/02 05:39:03;;;;;;;67.90;28.23;;;;;;;;;;4422683;32;20153;-83
2021/01/02 05:41:44;;;;;;;60.30;25.77;;;;;;;;;;4422643;32;20213;-84
2021/01/02 05:44:10;;;;;;;65.10;27.77;;;;;;;;;;4423111;32;20235;-84
2021/01/02 05:46:45;;;;;;;65.60;27.03;;;;;;;;;;4422760;32;20453;-84
2021/01/02 05:49:34;;;;;;;69.37;28.27;;;;;;;;;;4436951;32;20438;-84
2021/01/02 05:52:03;;;;;;;75.83;29.03;;;;;;;;;;4423125;32;20150;-83
2021/01/02 05:54:30;;;;;;;84.83;30.13;;;;;;;;;;4422334;32;20153;-84
2021/01/02 05:56:56;;;;;;;84.33;28.70;;;;;;;;;;4422449;32;20184;-84
2021/01/02 05:59:28;;;;;;;97.97;32.63;;;;;;;;;;4422359;32;20194;-84
2021/01/02 06:01:53;;;;;;;79.33;28.97;;;;;;;;;;4422285;32;20197;-84
2021/01/02 06:04:18;;;;;;;71.23;27.50;;;;;;;;;;4422350;32;20488;-84
2021/01/02 06:06:46;;;;;;;76.67;28.07;;;;;;;;;;4422544;32;20526;-84
2021/01/02 06:09:15;;;;;;;94.57;30.30;;;;;;;;;;4421679;32;20161;-84
2021/01/02 06:11:48;;;;;;;103.33;30.97;;;;;;;;;;4422587;32;20483;-84
2021/01/02 06:14:14;;;;;;;69.97;27.77;;;;;;;;;;4421883;32;20496;-83
2021/01/02 06:16:42;;;;;;;94.77;29.30;;;;;;;;;;4421993;32;20161;-84
2021/01/02 06:19:13;;;;;;;83.73;29.93;;;;;;;;;;4421982;32;20650;-84
2021/01/02 06:21:45;;;;;;;99.10;29.40;;;;;;;;;;4421709;32;20215;-84
2021/01/02 06:24:10;;;;;;;115.30;30.97;;;;;;;;;;4422002;32;20149;-84
2021/01/02 06:26:39;;;;;;;108.07;31.23;;;;;;;;;;4421918;32;20161;-85
2021/01/02 06:29:09;;;;;;;96.27;29.27;;;;;;;;;;4421884;32;20180;-84
2021/01/02 06:31:35;;;;;;;109.27;29.37;;;;;;;;;;4421812;32;20484;-84
2021/01/02 06:34:04;;;;;;;92.60;30.50;;;;;;;;;;4421755;32;20207;-85
2021/01/02 06:36:36;;;;;;;123.63;34.63;;;;;;;;;;4421857;32;20619;-84
2021/01/02 06:39:38;;;;;;;122.03;31.07;;;;;;;;;;4421433;32;20593;-84
2021/01/02 06:42:26;;;;;;;158.03;33.90;;;;;;;;;;4436625;32;20580;-84
2021/01/02 06:45:01;;;;;;;114.27;31.83;;;;;;;;;;4422241;32;20157;-83
2021/01/02 06:47:40;;;;;;;87.27;29.97;;;;;;;;;;4421695;32;20617;-84
2021/01/02 06:50:17;;;;;;;112.97;31.97;;;;;;;;;;4422119;32;20582;-84
2021/01/02 06:52:46;;;;;;;109.60;32.83;;;;;;;;;;4421680;32;20207;-84
2021/01/02 06:55:34;;;;;;;128.33;33.03;;;;;;;;;;4421903;32;20153;-84
2021/01/02 06:58:18;;;;;;;85.13;30.50;;;;;;;;;;4421966;32;20172;-84
2021/01/02 07:00:52;;;;;;;89.90;27.80;;;;;;;;;;4421566;32;20218;-84
2021/01/02 07:03:36;;;;;;;84.33;29.53;;;;;;;;;;4421593;32;20172;-84
2021/01/02 07:06:19;;;;;;;83.43;27.97;;;;;;;;;;4422018;32;20157;-84
2021/01/02 07:08:50;;;;;;;84.20;29.90;;;;;;;;;;4436039;32;20162;-84
2021/01/02 07:11:30;;;;;;;127.97;32.20;;;;;;;;;;4421474;32;20193;-83
2021/01/02 07:14:17;;;;;;;138.10;32.30;;;;;;;;;;4421682;32;20161;-83
2021/01/02 07:16:50;;;;;;;151.30;31.60;;;;;;;;;;4422265;32;20169;-83
2021/01/02 07:19:29;;;;;;;136.30;31.23;;;;;;;;;;4421371;32;20213;-84
2021/01/02 07:22:02;;;;;;;112.10;27.53;;;;;;;;;;4421409;32;20168;-84
2021/01/02 07:24:33;;;;;;;122.97;28.70;;;;;;;;;;4422093;32;20575;-84
2021/01/02 07:27:02;;;;;;;125.43;30.87;;;;;;;;;;4424819;32;20153;-84
2021/01/02 07:29:31;;;;;;;200.23;33.10;;;;;;;;;;4424489;32;20161;-84
2021/01/02 07:32:07;;;;;;;230.83;35.07;;;;;;;;;;4424840;32;20184;-83
2021/01/02 07:34:36;;;;;;;167.57;28.90;;;;;;;;;;4424528;32;20200;-84
2021/01/02 07:37:02;;;;;;;227.50;33.73;;;;;;;;;;4424483;32;20179;-84
2021/01/02 07:39:33;;;;;;;116.10;26.80;;;;;;;;;;4424342;32;20179;-84
2021/01/02 07:42:07;;;;;;;139.73;27.37;;;;;;;;;;4424662;32;20240;-84
2021/01/02 07:44:33;;;;;;;260.90;32.93;;;;;;;;;;4424360;32;20153;-84
2021/01/02 07:47:02;;;;;;;213.10;31.03;;;;;;;;;;4423982;32;20249;-84
2021/01/02 07:49:30;;;;;;;291.70;34.97;;;;;;;;;;4424609;32;20199;-84
2021/01/02 07:51:59;;;;;;;144.50;30.30;;;;;;;;;;4424656;32;20184;-84
2021/01/02 07:54:52;;;;;;;69.40;27.50;;;;;;;;;;4424694;32;20597;-85
2021/01/02 07:57:21;;;;;;;112.47;33.17;;;;;;;;;;4424296;32;20146;-85
2021/01/02 07:59:55;;;;;;;102.63;31.73;;;;;;;;;;4424171;32;20210;-85
2021/01/02 08:02:31;;;;;;;108.10;32.27;;;;;;;;;;4424335;32;20145;-85
2021/01/02 08:05:06;;;;;;;105.10;31.90;;;;;;;;;;4410678;32;20179;-85
2021/01/02 08:07:31;;;;;;;106.27;32.97;;;;;;;;;;4408949;32;20318;-85
2021/01/02 08:10:11;;;;;;;91.47;32.37;;;;;;;;;;4409063;32;20480;-85
2021/01/02 08:12:49;;;;;;;119.07;32.10;;;;;;;;;;4409211;32;20157;-84
2021/01/02 08:15:23;;;;;;;102.07;29.60;;;;;;;;;;4408761;32;20154;-86
2021/01/02 08:17:54;;;;;;;113.03;34.27;;;;;;;;;;4408640;32;20171;-85
2021/01/02 08:20:22;;;;;;;148.47;37.27;;;;;;;;;;4408657;32;20158;-85
2021/01/02 08:23:05;;;;;;;94.87;32.07;;;;;;;;;;4408562;32;20166;-84
2021/01/02 08:25:36;;;;;;;105.83;32.03;;;;;;;;;;4406595;32;20184;-84
2021/01/02 08:28:07;;;;;;;107.87;34.07;;;;;;;;;;4408832;32;20301;-85
2021/01/02 08:30:40;;;;;;;94.57;34.07;;;;;;;;;;4408159;32;20158;-86
2021/01/02 08:33:14;;;;;;;89.20;31.83;;;;;;;;;;4409224;32;20153;-86
2021/01/02 08:35:59;;;;;;;99.87;32.80;;;;;;;;;;4407978;32;20157;-85
2021/01/02 08:38:38;;;;;;;81.17;30.43;;;;;;;;;;4407401;32;20162;-85
2021/01/02 08:41:06;;;;;;;93.30;34.37;;;;;;;;;;4407590;32;20200;-85
2021/01/02 08:43:37;;;;;;;132.97;36.50;;;;;;;;;;4408358;32;20226;-86
2021/01/02 08:46:09;;;;;;;98.60;32.70;;;;;;;;;;4408348;32;20158;-85
2021/01/02 08:48:47;;;;;;;103.10;33.37;;;;;;;;;;4408402;32;20176;-86
2021/01/02 08:51:27;;;;;;;95.87;33.13;;;;;;;;;;4408351;32;20157;-86
2021/01/02 08:54:14;;;;;;;88.70;30.87;;;;;;;;;;4408195;32;20176;-85
2021/01/02 08:56:51;;;;;;;77.93;31.30;;;;;;;;;;4408555;32;20154;-85
2021/01/02 09:02:49;;;;;;;74.97;29.30;;;;;;;;;;4347176;33;20157;-84
2021/01/02 09:05:47;;;;;;;109.40;34.47;;;;;;;;;;4346787;33;20542;-85
2021/01/02 09:08:50;;;;;;;83.67;31.40;;;;;;;;;;4407699;32;20224;-85
2021/01/02 09:11:14;;;;;;;72.10;28.60;;;;;;;;;;4418800;32;20196;-85
2021/01/02 09:13:47;;;;;;;75.93;30.03;;;;;;;;;;4408364;32;20149;-87
2021/01/02 09:16:45;;;;;;;75.13;30.70;;;;;;;;;;4407709;32;20211;-86
2021/01/02 09:19:26;;;;;;;96.30;34.00;;;;;;;;;;4407780;32;20179;-86
2021/01/02 09:21:53;;;;;;;66.97;29.53;;;;;;;;;;4408054;32;20178;-86
2021/01/02 09:24:30;;;;;;;64.13;28.70;;;;;;;;;;4407772;32;20218;-86
2021/01/02 09:27:03;;;;;;;81.60;30.70;;;;;;;;;;4408948;32;20150;-86
2021/01/02 09:29:31;;;;;;;68.80;29.13;;;;;;;;;;4407788;32;20255;-86
2021/01/02 09:31:59;;;;;;;66.90;28.93;;;;;;;;;;4408075;32;20162;-86
2021/01/02 09:34:33;;;;;;;64.07;29.17;;;;;;;;;;4407665;32;20479;-86
2021/01/02 09:37:17;;;;;;;;;;;;;;;;;;;;;
2021/01/02 09:40:07;;;;;;;72.33;28.87;;;;;;;;;;4421807;32;20161;-86
2021/01/02 09:42:35;;;;;;;76.10;29.20;;;;;;;;;;4407868;32;20264;-86
2021/01/02 09:45:04;;;;;;;70.93;26.67;;;;;;;;;;4407695;32;20142;-85
2021/01/02 09:47:57;;;;;;;109.23;30.83;;;;;;;;;;4407653;32;20153;-86
2021/01/02 09:50:45;;;;;;;74.10;25.17;;;;;;;;;;4407941;32;20146;-86
2021/01/02 09:53:24;;;;;;;57.47;24.13;;;;;;;;;;4409187;32;20184;-86
2021/01/02 09:56:09;;;;;;;119.53;28.57;;;;;;;;;;4406167;32;20184;-87
2021/01/02 09:59:06;;;;;;;92.37;27.47;;;;;;;;;;4422019;32;20631;-85
2021/01/02 10:01:34;;;;;;;96.00;27.23;;;;;;;;;;4407429;32;20158;-84
2021/01/02 10:04:13;;;;;;;76.83;26.17;;;;;;;;;;4408007;32;20158;-84
2021/01/02 10:06:53;;;;;;;119.40;27.30;;;;;;;;;;4407979;32;20566;-84
2021/01/02 10:09:24;;;;;;;94.37;26.10;;;;;;;;;;4407814;32;20173;-85
2021/01/02 10:12:04;;;;;;;66.80;25.43;;;;;;;;;;4407602;32;20177;-85
2021/01/02 10:14:30;;;;;;;69.63;25.67;;;;;;;;;;4421720;32;20145;-85
2021/01/02 10:17:05;;;;;;;63.33;26.87;;;;;;;;;;4420956;32;20195;-86
2021/01/02 10:19:40;;;;;;;215.13;34.00;;;;;;;;;;4407284;32;20149;-85
2021/01/02 10:22:08;;;;;;;150.80;30.17;;;;;;;;;;4406694;32;20162;-85
2021/01/02 10:24:54;;;;;;;93.10;28.60;;;;;;;;;;4406981;32;20185;-85
2021/01/02 10:27:25;;;;;;;101.93;30.30;;;;;;;;;;4407062;32;20142;-86
2021/01/02 10:30:07;;;;;;;150.93;34.23;;;;;;;;;;4407702;32;20149;-85
2021/01/02 10:32:43;;;;;;;208.33;33.77;;;;;;;;;;4407574;32;20187;-86
2021/01/02 10:35:10;;;;;;;92.77;29.00;;;;;;;;;;4407647;32;20192;-87
2021/01/02 10:37:40;;;;;;;75.33;28.97;;;;;;;;;;4407046;32;20184;-86
2021/01/02 10:40:10;;;;;;;77.87;28.87;;;;;;;;;;4407828;32;20175;-85
2021/01/02 10:42:47;;;;;;;114.33;28.50;;;;;;;;;;4421752;32;20200;-85
2021/01/02 10:45:15;;;;;;;85.50;29.77;;;;;;;;;;4407122;32;20209;-85
2021/01/02 10:48:00;;;;;;;114.03;30.53;;;;;;;;;;4407831;32;20587;-86
2021/01/02 10:50:30;;;;;;;93.30;29.33;;;;;;;;;;4410258;32;20141;-87
2021/01/02 10:52:56;;;;;;;98.17;29.47;;;;;;;;;;4410741;32;20150;-85
2021/01/02 10:55:32;;;;;;;86.83;28.77;;;;;;;;;;4410733;32;20154;-85
2021/01/02 10:58:16;;;;;;;99.67;28.63;;;;;;;;;;4424298;32;20121;-85
2021/01/02 11:00:48;;;;;;;140.90;30.40;;;;;;;;;;4426428;32;20141;-86
2021/01/02 11:03:28;;;;;;;105.17;27.67;;;;;;;;;;4425987;32;20142;-87
2021/01/02 11:06:05;;;;;;;126.90;28.70;;;;;;;;;;4422872;32;20165;-86
2021/01/02 11:08:43;;;;;;;114.53;27.87;;;;;;;;;;4438142;32;20251;-87
2021/01/02 11:11:34;;;;;;;96.40;28.23;;;;;;;;;;4410667;32;20222;-86
2021/01/02 11:14:13;;;;;;;117.50;26.93;;;;;;;;;;4437074;32;20118;-85
2021/01/02 11:16:52;;;;;;;104.13;29.23;;;;;;;;;;4421248;32;20153;-86
2021/01/02 11:19:26;;;;;;;91.40;28.97;;;;;;;;;;4422177;32;20145;-86
2021/01/02 11:21:55;;;;;;;59.27;27.53;;;;;;;;;;4421604;32;20165;-83
2021/01/02 11:24:32;;;;;;;80.83;32.53;;;;;;;;;;4409626;32;20149;-84
2021/01/02 11:27:20;;;;;;;72.03;28.50;;;;;;;;;;4420736;32;20175;-84
2021/01/02 11:30:10;;;;;;;79.47;29.03;;;;;;;;;;4420682;32;20157;-83
2021/01/02 11:32:41;;;;;;;101.93;31.03;;;;;;;;;;4434239;32;20215;-84
2021/01/02 11:35:20;;;;;;;97.70;30.87;;;;;;;;;;4447504;32;20133;-85
2021/01/02 11:37:57;;;;;;;103.60;30.03;;;;;;;;;;4416221;32;20172;-84
2021/01/02 11:40:28;;;;;;;89.63;30.67;;;;;;;;;;4410923;32;20180;-85
2021/01/02 11:42:58;;;;;;;97.87;30.57;;;;;;;;;;4406067;32;20251;-84
2021/01/02 11:45:29;;;;;;;89.57;29.90;;;;;;;;;;4406087;32;20220;-84
2021/01/02 11:48:13;;;;;;;74.20;29.97;;;;;;;;;;4420147;32;20220;-85
2021/01/02 11:50:53;;;;;;;77.23;28.77;;;;;;;;;;4432086;32;20186;-84
2021/01/02 11:53:29;;;;;;;78.90;29.57;;;;;;;;;;4436344;32;20206;-84
2021/01/02 11:55:54;;;;;;;79.07;30.93;;;;;;;;;;4437174;32;20186;-85
2021/01/02 11:58:28;;;;;;;88.77;29.40;;;;;;;;;;4440548;32;20201;-85
2021/01/02 12:00:56;;;;;;;83.77;31.60;;;;;;;;;;4425212;32;20250;-82
2021/01/02 12:03:27;;;;;;;81.97;30.73;;;;;;;;;;4418927;32;20172;-82
2021/01/02 12:06:01;;;;;;;78.70;29.90;;;;;;;;;;4435447;32;20172;-86
2021/01/02 12:08:29;;;;;;;103.07;30.90;;;;;;;;;;4420703;32;20161;-84
2021/01/02 12:10:57;;;;;;;145.47;32.97;;;;;;;;;;4433332;32;20157;-83
2021/01/02 12:13:32;;;;;;;97.13;32.93;;;;;;;;;;4438977;32;20180;-83
2021/01/02 12:15:57;;;;;;;90.00;31.83;;;;;;;;;;4439114;32;20171;-83
2021/01/02 12:18:25;;;;;;;78.87;32.27;;;;;;;;;;4439582;32;20188;-83
2021/01/02 12:20:53;;;;;;;73.90;31.97;;;;;;;;;;4453298;32;20133;-83
2021/01/02 12:23:18;;;;;;;76.73;32.23;;;;;;;;;;4435155;32;20173;-82
2021/01/02 12:25:56;;;;;;;78.50;33.33;;;;;;;;;;4436657;32;20153;-86
2021/01/02 12:28:27;;;;;;;80.97;33.90;;;;;;;;;;4437361;32;20154;-85
2021/01/02 12:31:12;;;;;;;81.37;32.83;;;;;;;;;;4436859;32;20232;-85
2021/01/02 12:33:58;;;;;;;80.13;33.20;;;;;;;;;;4436725;32;20214;-84
2021/01/02 12:36:32;;;;;;;71.73;33.10;;;;;;;;;;4434646;32;20250;-82
2021/01/02 12:39:00;;;;;;;78.47;32.50;;;;;;;;;;4435015;32;20154;-85
2021/01/02 12:41:33;;;;;;;73.93;32.17;;;;;;;;;;4423270;32;20171;-88
2021/01/02 12:44:01;;;;;;;71.70;31.77;;;;;;;;;;4431260;32;20234;-87
2021/01/02 12:46:34;;;;;;;69.77;30.83;;;;;;;;;;4432013;32;20290;-87
2021/01/02 12:49:12;;;;;;;60.87;28.50;;;;;;;;;;4435879;32;20157;-86
2021/01/02 12:51:46;;;;;;;57.10;28.70;;;;;;;;;;4433137;32;20503;-87
2021/01/02 12:54:19;;;;;;;56.73;27.97;;;;;;;;;;4434853;32;20149;-87
2021/01/02 12:59:54;;;;;;;53.40;26.80;;;;;;;;;;4424858;32;20228;-85
2021/01/02 13:02:20;;;;;;;55.83;27.33;;;;;;;;;;4421303;32;20534;-86
2021/01/02 13:04:48;;;;;;;54.73;26.67;;;;;;;;;;4422862;32;20161;-84
2021/01/02 13:07:14;;;;;;;49.93;24.70;;;;;;;;;;4436518;32;20543;-86
2021/01/02 13:09:49;;;;;;;52.03;26.23;;;;;;;;;;4437057;32;20145;-86
2021/01/02 13:12:20;;;;;;;51.17;25.93;;;;;;;;;;4436234;32;20156;-86
2021/01/02 13:14:55;;;;;;;49.17;24.83;;;;;;;;;;4435876;32;20145;-86
2021/01/02 13:17:22;;;;;;;51.90;26.07;;;;;;;;;;4435915;32;20148;-85
2021/01/02 13:19:53;;;;;;;58.13;26.90;;;;;;;;;;4435838;32;20214;-85
2021/01/02 13:22:30;;;;;;;49.07;25.50;;;;;;;;;;4427242;32;20520;-85
2021/01/02 13:24:56;;;;;;;45.07;23.70;;;;;;;;;;4437900;32;20476;-86
2021/01/02 13:27:31;;;;;;;43.38;23.48;;;;;;;;;;4438378;32;20222;-86
2021/01/02 13:29:58;;;;;;;42.35;20.85;;;;;;;;;;4438323;32;20470;-86
2021/01/02 13:32:29;;;;;;;40.22;20.42;;;;;;;;;;4452458;32;20215;-85
2021/01/02 13:37:54;;;;;;;38.88;20.02;;;;;;;;;;4448602;32;20145;-86
2021/01/02 13:40:25;;;;;;;36.70;19.15;;;;;;;;;;4452061;32;20477;-86
2021/01/02 13:42:54;;;;;;;37.15;19.65;;;;;;;;;;4437671;32;20637;-86
2021/01/02 13:45:36;;;;;;;36.25;19.40;;;;;;;;;;4437678;32;20497;-86
2021/01/02 13:48:42;;;;;;;;;;;;;;;;;;;;;
2021/01/02 13:51:14;;;;;;;39.88;20.27;;;;;;;;;;4447444;32;20478;-86
2021/01/02 13:53:45;;;;;;;38.95;20.65;;;;;;;;;;4438619;32;20194;-86
2021/01/02 13:56:12;;;;;;;41.87;22.70;;;;;;;;;;4437653;32;20566;-85
2021/01/02 13:59:02;;;;;;;43.27;21.67;;;;;;;;;;4451491;32;20133;-85
2021/01/02 14:01:36;;;;;;;42.47;21.17;;;;;;;;;;4437500;32;20597;-85
2021/01/02 14:04:05;;;;;;;46.07;22.17;;;;;;;;;;4451832;32;20124;-86
2021/01/02 14:06:38;;;;;;;42.80;23.03;;;;;;;;;;4438433;32;20177;-86
2021/01/02 14:09:12;;;;;;;48.77;24.60;;;;;;;;;;4437836;32;20637;-86
2021/01/02 14:11:39;;;;;;;48.60;24.17;;;;;;;;;;4437276;32;20574;-85
2021/01/02 14:14:13;;;;;;;46.87;23.70;;;;;;;;;;4437744;32;20161;-86
2021/01/02 14:16:50;;;;;;;45.87;23.40;;;;;;;;;;4437741;32;20157;-85
2021/01/02 14:19:22;;;;;;;44.27;23.57;;;;;;;;;;4437739;32;20193;-86
2021/01/02 14:21:49;;;;;;;49.23;24.67;;;;;;;;;;4435076;32;20732;-86
2021/01/02 14:24:20;;;;;;;56.47;28.93;;;;;;;;;;4437392;32;20153;-86
2021/01/02 14:26:51;;;;;;;60.80;28.27;;;;;;;;;;4437606;32;20179;-86
2021/01/02 14:29:24;;;;;;;10.53;5.60;;;;;;;;;;4451024;32;20221;-85
2021/01/02 14:31:55;;;;;;;7.27;3.77;;;;;;;;;;4437860;32;20176;-86
2021/01/02 14:34:24;;;;;;;7.33;3.00;;;;;;;;;;4436778;32;20590;-86
2021/01/02 14:36:54;;;;;;;8.77;3.37;;;;;;;;;;4437399;32;20153;-85
2021/01/02 14:39:29;;;;;;;8.90;4.07;;;;;;;;;;4436740;32;20632;-86
2021/01/02 14:41:58;;;;;;;17.70;8.43;;;;;;;;;;4438165;32;20254;-86
2021/01/02 14:44:26;;;;;;;18.93;9.60;;;;;;;;;;4437276;32;20210;-85
2021/01/02 14:46:52;;;;;;;20.37;8.80;;;;;;;;;;4437254;32;20160;-86
2021/01/02 14:49:17;;;;;;;13.03;6.27;;;;;;;;;;4450899;32;20234;-86
2021/01/02 14:51:43;;;;;;;14.57;5.30;;;;;;;;;;4451263;32;20129;-84
2021/01/02 14:54:09;;;;;;;11.40;4.80;;;;;;;;;;4437377;32;20220;-84
2021/01/02 14:56:35;;;;;;;15.03;5.17;;;;;;;;;;4437603;32;20582;-85
2021/01/02 14:59:03;;;;;;;10.20;4.70;;;;;;;;;;4436809;32;20274;-84
2021/01/02 15:01:35;;;;;;;9.63;4.60;;;;;;;;;;4434683;32;20200;-83
2021/01/02 15:04:01;;;;;;;12.17;5.40;;;;;;;;;;4433300;32;20153;-83